Check out our new PWSWeather beta!
PWSweather.com
Personal Weather Stations
Station Observations
BEZINA
Slovenske KonjiceSI

Slovenske KonjiceSI

Lat: 46.358, Lon: 15.433

Elevation: 340

Station Type: Oregon WMR 200

http://www.slometeo.net/bezina/

High Low Average
Temperature 94.8°F34.9°C 60.1°F15.6°C 78.5°F25.8°C
Dew Point 66.0°F18.9°C 54.1°F12.3°C 58.5°F14.7°C
Winds 8.4 mph 13.5 kmh Calm Calm 3.0 mph SE4.8 kmh SE
Wind Gusts 19.0 mph30.6 kmh -- 7.0 mph11.3 kmh
Humidity 92% 28% 55%
Pressure 30.04 in1017.3 mb 29.90 in1012.5 mb -
Precipitation 0.00 in0.0 mm - -
Hour Temp Dew Point Humidity Winds Wind Gusts Pressure Precip Precip Rate Daily Precip Total
12:00 AM 64.1°F17.8°C 60.2°F15.7°C 87% Calm Calm -- 30.05 in1017.6 mb 0.00 in0.0 mm 0.00 in0.0 mm 0.00 in0.0 mm
12:15 AM 63.8°F17.7°C 60.2°F15.7°C 88% Calm Calm -- 30.05 in1017.6 mb 0.00 in0.0 mm 0.00 in0.0 mm 0.00 in0.0 mm
12:30 AM 63.4°F17.4°C 59.8°F15.4°C 88% Calm Calm -- 30.05 in1017.6 mb 0.00 in0.0 mm 0.00 in0.0 mm 0.00 in0.0 mm
12:45 AM 63.0°F17.2°C 59.7°F15.4°C 89% Calm Calm -- 30.05 in1017.6 mb 0.00 in0.0 mm 0.00 in0.0 mm 0.00 in0.0 mm
01:00 AM 62.4°F16.9°C 59.1°F15.1°C 89% Calm Calm -- 30.04 in1017.3 mb 0.00 in0.0 mm 0.00 in0.0 mm 0.00 in0.0 mm
01:15 AM 62.1°F16.7°C 59.1°F15.1°C 90% Calm Calm -- 30.04 in1017.3 mb 0.00 in0.0 mm 0.00 in0.0 mm 0.00 in0.0 mm
01:30 AM 61.8°F16.6°C 58.8°F14.9°C 90% Calm Calm -- 30.03 in1016.9 mb 0.00 in0.0 mm 0.00 in0.0 mm 0.00 in0.0 mm
01:45 AM 61.6°F16.4°C 58.9°F14.9°C 91% Calm Calm 4.0 mph6.4 kmh 30.03 in1016.9 mb 0.00 in0.0 mm 0.00 in0.0 mm 0.00 in0.0 mm
02:00 AM 61.6°F16.4°C 58.9°F14.9°C 91% 1.0 mph S1.6 kmh S 4.0 mph6.4 kmh 30.03 in1016.9 mb 0.00 in0.0 mm 0.00 in0.0 mm 0.00 in0.0 mm
02:15 AM 61.4°F16.3°C 58.7°F14.8°C 91% 0.1 mph SSE0.2 kmh SSE 1.0 mph1.6 kmh 30.02 in1016.6 mb 0.00 in0.0 mm 0.00 in0.0 mm 0.00 in0.0 mm
02:30 AM 61.2°F16.2°C 58.6°F14.8°C 91% Calm Calm -- 30.02 in1016.6 mb 0.00 in0.0 mm 0.00 in0.0 mm 0.00 in0.0 mm
02:45 AM 61.1°F16.2°C 58.5°F14.7°C 91% 0.2 mph SSE0.3 kmh SSE 4.0 mph6.4 kmh 30.01 in1016.3 mb 0.00 in0.0 mm 0.00 in0.0 mm 0.00 in0.0 mm
03:00 AM 60.9°F16.1°C 58.3°F14.6°C 91% 0.1 mph SSE0.2 kmh SSE 1.0 mph1.6 kmh 30.01 in1016.3 mb 0.00 in0.0 mm 0.00 in0.0 mm 0.00 in0.0 mm
03:15 AM 60.6°F15.9°C 58.3°F14.6°C 92% Calm Calm 2.0 mph3.2 kmh 30.01 in1016.3 mb 0.00 in0.0 mm 0.00 in0.0 mm 0.00 in0.0 mm
03:30 AM 60.3°F15.7°C 58.0°F14.4°C 92% Calm Calm -- 30.00 in1015.9 mb 0.00 in0.0 mm 0.00 in0.0 mm 0.00 in0.0 mm
03:45 AM 60.3°F15.7°C 58.0°F14.4°C 92% Calm Calm 3.0 mph4.8 kmh 30.00 in1015.9 mb 0.00 in0.0 mm 0.00 in0.0 mm 0.00 in0.0 mm
04:00 AM 60.3°F15.7°C 58.0°F14.4°C 92% Calm Calm 3.0 mph4.8 kmh 30.00 in1015.9 mb 0.00 in0.0 mm 0.00 in0.0 mm 0.00 in0.0 mm
04:15 AM 60.1°F15.6°C 57.8°F14.3°C 92% Calm Calm 1.0 mph1.6 kmh 30.00 in1015.9 mb 0.00 in0.0 mm 0.00 in0.0 mm 0.00 in0.0 mm
04:30 AM 60.2°F15.7°C 57.9°F14.4°C 92% Calm Calm 2.0 mph3.2 kmh 30.00 in1015.9 mb 0.00 in0.0 mm 0.00 in0.0 mm 0.00 in0.0 mm
04:45 AM 61.1°F16.2°C 58.1°F14.5°C 90% Calm Calm 2.0 mph3.2 kmh 30.00 in1015.9 mb 0.00 in0.0 mm 0.00 in0.0 mm 0.00 in0.0 mm
05:00 AM 61.8°F16.6°C 58.2°F14.6°C 88% Calm Calm 3.0 mph4.8 kmh 30.00 in1015.9 mb 0.00 in0.0 mm 0.00 in0.0 mm 0.00 in0.0 mm
05:15 AM 64.1°F17.8°C 58.8°F14.9°C 83% 1.6 mph SSW2.6 kmh SSW 6.0 mph9.7 kmh 30.00 in1015.9 mb 0.00 in0.0 mm 0.00 in0.0 mm 0.00 in0.0 mm
05:30 AM 68.1°F20.1°C 58.7°F14.8°C 72% 2.2 mph SSW3.5 kmh SSW 7.0 mph11.3 kmh 30.00 in1015.9 mb 0.00 in0.0 mm 0.00 in0.0 mm 0.00 in0.0 mm
05:45 AM 70.9°F21.6°C 58.5°F14.7°C 65% 3.0 mph SSW4.8 kmh SSW 10.0 mph16.1 kmh 30.00 in1015.9 mb 0.00 in0.0 mm 0.00 in0.0 mm 0.00 in0.0 mm
06:00 AM 72.4°F22.4°C 58.2°F14.6°C 61% 3.1 mph WSW5.0 kmh WSW 12.0 mph19.3 kmh 29.99 in1015.6 mb 0.00 in0.0 mm 0.00 in0.0 mm 0.00 in0.0 mm
06:15 AM 73.7°F23.2°C 58.9°F14.9°C 60% 3.0 mph SW4.8 kmh SW 9.0 mph14.5 kmh 29.99 in1015.6 mb 0.00 in0.0 mm 0.00 in0.0 mm 0.00 in0.0 mm
06:30 AM 74.7°F23.7°C 58.5°F14.7°C 57% 3.8 mph WSW6.1 kmh WSW 12.0 mph19.3 kmh 29.99 in1015.6 mb 0.00 in0.0 mm 0.00 in0.0 mm 0.00 in0.0 mm
06:45 AM 75.7°F24.3°C 58.9°F14.9°C 56% 3.4 mph SW5.5 kmh SW 9.0 mph14.5 kmh 29.99 in1015.6 mb 0.00 in0.0 mm 0.00 in0.0 mm 0.00 in0.0 mm
07:00 AM 76.7°F24.8°C 58.8°F14.9°C 54% 4.1 mph SW6.6 kmh SW 10.0 mph16.1 kmh 29.99 in1015.6 mb 0.00 in0.0 mm 0.00 in0.0 mm 0.00 in0.0 mm
07:15 AM 77.3°F25.2°C 58.8°F14.9°C 53% 3.6 mph WSW5.8 kmh WSW 9.0 mph14.5 kmh 29.99 in1015.6 mb 0.00 in0.0 mm 0.00 in0.0 mm 0.00 in0.0 mm
07:30 AM 77.9°F25.5°C 58.3°F14.6°C 51% 3.5 mph WSW5.6 kmh WSW 9.0 mph14.5 kmh 29.99 in1015.6 mb 0.00 in0.0 mm 0.00 in0.0 mm 0.00 in0.0 mm
07:45 AM 79.1°F26.2°C 58.9°F14.9°C 50% 4.8 mph WSW7.7 kmh WSW 10.0 mph16.1 kmh 29.99 in1015.6 mb 0.00 in0.0 mm 0.00 in0.0 mm 0.00 in0.0 mm
08:00 AM 80.3°F26.8°C 58.8°F14.9°C 48% 5.0 mph WSW8.0 kmh WSW 11.0 mph17.7 kmh 29.99 in1015.6 mb 0.00 in0.0 mm 0.00 in0.0 mm 0.00 in0.0 mm
08:15 AM 81.1°F27.3°C 59.0°F15.0°C 47% 4.5 mph WSW7.2 kmh WSW 11.0 mph17.7 kmh 29.99 in1015.6 mb 0.00 in0.0 mm 0.00 in0.0 mm 0.00 in0.0 mm
08:30 AM 82.5°F28.1°C 58.4°F14.7°C 44% 3.4 mph SW5.5 kmh SW 9.0 mph14.5 kmh 29.99 in1015.6 mb 0.00 in0.0 mm 0.00 in0.0 mm 0.00 in0.0 mm
08:45 AM 83.9°F28.8°C 57.0°F13.9°C 40% 3.1 mph WSW5.0 kmh WSW 8.0 mph12.9 kmh 29.99 in1015.6 mb 0.00 in0.0 mm 0.00 in0.0 mm 0.00 in0.0 mm
09:00 AM 85.1°F29.5°C 58.8°F14.9°C 41% 3.1 mph SW5.0 kmh SW 8.0 mph12.9 kmh 29.99 in1015.6 mb 0.00 in0.0 mm 0.00 in0.0 mm 0.00 in0.0 mm
09:15 AM 85.9°F29.9°C 58.1°F14.5°C 39% 5.1 mph S8.2 kmh S 13.0 mph20.9 kmh 29.99 in1015.6 mb 0.00 in0.0 mm 0.00 in0.0 mm 0.00 in0.0 mm
09:30 AM 86.4°F30.2°C 55.5°F13.1°C 35% 5.1 mph SSW8.2 kmh SSW 13.0 mph20.9 kmh 29.99 in1015.6 mb 0.00 in0.0 mm 0.00 in0.0 mm 0.00 in0.0 mm
09:45 AM 86.3°F30.2°C 54.6°F12.6°C 34% 7.2 mph S11.6 kmh S 16.0 mph25.7 kmh 29.99 in1015.6 mb 0.00 in0.0 mm 0.00 in0.0 mm 0.00 in0.0 mm
10:00 AM 86.5°F30.3°C 56.4°F13.6°C 36% 7.0 mph SSW11.3 kmh SSW 16.0 mph25.7 kmh 29.99 in1015.6 mb 0.00 in0.0 mm 0.00 in0.0 mm 0.00 in0.0 mm
10:15 AM 86.8°F30.4°C 55.9°F13.3°C 35% 7.0 mph SSW11.3 kmh SSW 16.0 mph25.7 kmh 29.99 in1015.6 mb 0.00 in0.0 mm 0.00 in0.0 mm 0.00 in0.0 mm
10:30 AM 86.7°F30.4°C 59.5°F15.3°C 40% 6.9 mph SSW11.1 kmh SSW 16.0 mph25.7 kmh 29.99 in1015.6 mb 0.00 in0.0 mm 0.00 in0.0 mm 0.00 in0.0 mm
10:45 AM 86.7°F30.4°C 58.8°F14.9°C 39% 7.8 mph SSW12.6 kmh SSW 17.0 mph27.4 kmh 29.99 in1015.6 mb 0.00 in0.0 mm 0.00 in0.0 mm 0.00 in0.0 mm
11:00 AM 87.5°F30.8°C 62.2°F16.8°C 43% 5.4 mph SSW8.7 kmh SSW 17.0 mph27.4 kmh 29.99 in1015.6 mb 0.00 in0.0 mm 0.00 in0.0 mm 0.00 in0.0 mm
11:15 AM 88.1°F31.2°C 60.7°F15.9°C 40% 6.6 mph SSW10.6 kmh SSW 15.0 mph24.1 kmh 29.99 in1015.6 mb 0.00 in0.0 mm 0.00 in0.0 mm 0.00 in0.0 mm
11:30 AM 89.0°F31.7°C 58.6°F14.8°C 36% 5.1 mph WSW8.2 kmh WSW 15.0 mph24.1 kmh 29.99 in1015.6 mb 0.00 in0.0 mm 0.00 in0.0 mm 0.00 in0.0 mm
11:45 AM 89.6°F32.0°C 57.5°F14.2°C 34% 5.5 mph SW8.9 kmh SW 13.0 mph20.9 kmh 29.98 in1015.2 mb 0.00 in0.0 mm 0.00 in0.0 mm 0.00 in0.0 mm
12:00 PM 90.5°F32.5°C 54.8°F12.7°C 30% 5.2 mph SSW8.4 kmh SSW 11.0 mph17.7 kmh 29.98 in1015.2 mb 0.00 in0.0 mm 0.00 in0.0 mm 0.00 in0.0 mm
12:15 PM 91.5°F33.1°C 54.8°F12.7°C 29% 5.7 mph WSW9.2 kmh WSW 13.0 mph20.9 kmh 29.98 in1015.2 mb 0.00 in0.0 mm 0.00 in0.0 mm 0.00 in0.0 mm
12:30 PM 92.1°F33.4°C 54.3°F12.4°C 28% 5.4 mph SSW8.7 kmh SSW 14.0 mph22.5 kmh 29.97 in1014.9 mb 0.00 in0.0 mm 0.00 in0.0 mm 0.00 in0.0 mm
12:45 PM 91.7°F33.2°C 54.9°F12.7°C 29% 8.4 mph SSW13.5 kmh SSW 13.0 mph20.9 kmh 29.96 in1014.6 mb 0.00 in0.0 mm 0.00 in0.0 mm 0.00 in0.0 mm
01:00 PM 91.9°F33.3°C 54.1°F12.3°C 28% 7.2 mph S11.6 kmh S 19.0 mph30.6 kmh 29.96 in1014.6 mb 0.00 in0.0 mm 0.00 in0.0 mm 0.00 in0.0 mm
01:15 PM 91.9°F33.3°C 54.1°F12.3°C 28% 8.1 mph S13.0 kmh S 16.0 mph25.7 kmh 29.95 in1014.2 mb 0.00 in0.0 mm 0.00 in0.0 mm 0.00 in0.0 mm
01:30 PM 93.2°F34.0°C 55.2°F12.9°C 28% 5.3 mph SSW8.5 kmh SSW 12.0 mph19.3 kmh 29.95 in1014.2 mb 0.00 in0.0 mm 0.00 in0.0 mm 0.00 in0.0 mm
01:45 PM 93.2°F34.0°C 57.2°F14.0°C 30% 6.0 mph SSW9.7 kmh SSW 14.0 mph22.5 kmh 29.94 in1013.9 mb 0.00 in0.0 mm 0.00 in0.0 mm 0.00 in0.0 mm
02:00 PM 93.9°F34.4°C 56.8°F13.8°C 29% 5.6 mph SW9.0 kmh SW 16.0 mph25.7 kmh 29.93 in1013.5 mb 0.00 in0.0 mm 0.00 in0.0 mm 0.00 in0.0 mm
02:15 PM 94.4°F34.7°C 56.3°F13.5°C 28% 4.0 mph SW6.4 kmh SW 9.0 mph14.5 kmh 29.93 in1013.5 mb 0.00 in0.0 mm 0.00 in0.0 mm 0.00 in0.0 mm
02:30 PM 94.6°F34.8°C 56.4°F13.6°C 28% 3.2 mph WSW5.1 kmh WSW 7.0 mph11.3 kmh 29.92 in1013.2 mb 0.00 in0.0 mm 0.00 in0.0 mm 0.00 in0.0 mm
02:45 PM 93.9°F34.4°C 55.8°F13.2°C 28% 5.6 mph S9.0 kmh S 14.0 mph22.5 kmh 29.92 in1013.2 mb 0.00 in0.0 mm 0.00 in0.0 mm 0.00 in0.0 mm
03:00 PM 94.0°F34.4°C 55.9°F13.3°C 28% 5.7 mph SW9.2 kmh SW 14.0 mph22.5 kmh 29.92 in1013.2 mb 0.00 in0.0 mm 0.00 in0.0 mm 0.00 in0.0 mm
03:15 PM 93.6°F34.2°C 57.5°F14.2°C 30% 6.0 mph S9.7 kmh S 15.0 mph24.1 kmh 29.92 in1013.2 mb 0.00 in0.0 mm 0.00 in0.0 mm 0.00 in0.0 mm
03:30 PM 94.8°F34.9°C 57.6°F14.2°C 29% 3.3 mph W5.3 kmh W 9.0 mph14.5 kmh 29.92 in1013.2 mb 0.00 in0.0 mm 0.00 in0.0 mm 0.00 in0.0 mm
03:45 PM 94.6°F34.8°C 56.4°F13.6°C 28% 3.8 mph SW6.1 kmh SW 8.0 mph12.9 kmh 29.91 in1012.9 mb 0.00 in0.0 mm 0.00 in0.0 mm 0.00 in0.0 mm
04:00 PM 93.6°F34.2°C 55.6°F13.1°C 28% 4.1 mph SW6.6 kmh SW 11.0 mph17.7 kmh 29.91 in1012.9 mb 0.00 in0.0 mm 0.00 in0.0 mm 0.00 in0.0 mm
04:15 PM 93.2°F34.0°C 57.2°F14.0°C 30% 3.4 mph WSW5.5 kmh WSW 8.0 mph12.9 kmh 29.91 in1012.9 mb 0.00 in0.0 mm 0.00 in0.0 mm 0.00 in0.0 mm
04:30 PM 92.3°F33.5°C 55.4°F13.0°C 29% 3.0 mph SW4.8 kmh SW 9.0 mph14.5 kmh 29.91 in1012.9 mb 0.00 in0.0 mm 0.00 in0.0 mm 0.00 in0.0 mm
04:45 PM 91.8°F33.2°C 56.0°F13.3°C 30% 4.0 mph SW6.4 kmh SW 8.0 mph12.9 kmh 29.90 in1012.5 mb 0.00 in0.0 mm 0.00 in0.0 mm 0.00 in0.0 mm
05:00 PM 91.5°F33.1°C 59.2°F15.1°C 34% 1.5 mph NW2.4 kmh NW 4.0 mph6.4 kmh 29.91 in1012.9 mb 0.00 in0.0 mm 0.00 in0.0 mm 0.00 in0.0 mm
05:15 PM 90.4°F32.4°C 61.3°F16.3°C 38% 2.2 mph NW3.5 kmh NW 8.0 mph12.9 kmh 29.91 in1012.9 mb 0.00 in0.0 mm 0.00 in0.0 mm 0.00 in0.0 mm
05:30 PM 89.9°F32.2°C 57.8°F14.3°C 34% 2.1 mph N3.4 kmh N 4.0 mph6.4 kmh 29.90 in1012.5 mb 0.00 in0.0 mm 0.00 in0.0 mm 0.00 in0.0 mm
05:45 PM 89.5°F31.9°C 65.4°F18.6°C 45% 2.0 mph N3.2 kmh N 5.0 mph8.0 kmh 29.90 in1012.5 mb 0.00 in0.0 mm 0.00 in0.0 mm 0.00 in0.0 mm
06:00 PM 89.5°F31.9°C 66.0°F18.9°C 46% 1.0 mph N1.6 kmh N 2.0 mph3.2 kmh 29.90 in1012.5 mb 0.00 in0.0 mm 0.00 in0.0 mm 0.00 in0.0 mm
06:15 PM 88.7°F31.5°C 63.3°F17.4°C 43% 1.0 mph N1.6 kmh N 4.0 mph6.4 kmh 29.90 in1012.5 mb 0.00 in0.0 mm 0.00 in0.0 mm 0.00 in0.0 mm
06:30 PM 85.2°F29.6°C 61.5°F16.4°C 45% 1.0 mph NNE1.6 kmh NNE 5.0 mph8.0 kmh 29.90 in1012.5 mb 0.00 in0.0 mm 0.00 in0.0 mm 0.00 in0.0 mm
06:45 PM 82.5°F28.1°C 62.5°F16.9°C 51% 1.1 mph NNE1.8 kmh NNE 3.0 mph4.8 kmh 29.90 in1012.5 mb 0.00 in0.0 mm 0.00 in0.0 mm 0.00 in0.0 mm
07:00 PM 79.7°F26.5°C 61.1°F16.2°C 53% 1.0 mph NNE1.6 kmh NNE 4.0 mph6.4 kmh 29.90 in1012.5 mb 0.00 in0.0 mm 0.00 in0.0 mm 0.00 in0.0 mm
07:15 PM 78.1°F25.6°C 59.6°F15.3°C 53% 2.0 mph NNE3.2 kmh NNE 4.0 mph6.4 kmh 29.90 in1012.5 mb 0.00 in0.0 mm 0.00 in0.0 mm 0.00 in0.0 mm
07:30 PM 76.9°F24.9°C 62.4°F16.9°C 61% 1.0 mph NNE1.6 kmh NNE 3.0 mph4.8 kmh 29.90 in1012.5 mb 0.00 in0.0 mm 0.00 in0.0 mm 0.00 in0.0 mm
07:45 PM 75.1°F23.9°C 62.5°F16.9°C 65% 1.0 mph NNE1.6 kmh NNE 3.0 mph4.8 kmh 29.91 in1012.9 mb 0.00 in0.0 mm 0.00 in0.0 mm 0.00 in0.0 mm
08:00 PM 74.1°F23.4°C 62.0°F16.7°C 66% 1.0 mph NNE1.6 kmh NNE 3.0 mph4.8 kmh 29.92 in1013.2 mb 0.00 in0.0 mm 0.00 in0.0 mm 0.00 in0.0 mm
08:15 PM 73.1°F22.8°C 60.6°F15.9°C 65% 1.0 mph NNE1.6 kmh NNE 2.0 mph3.2 kmh 29.93 in1013.5 mb 0.00 in0.0 mm 0.00 in0.0 mm 0.00 in0.0 mm
08:30 PM 73.0°F22.8°C 60.1°F15.6°C 64% 1.0 mph N1.6 kmh N 4.0 mph6.4 kmh 29.94 in1013.9 mb 0.00 in0.0 mm 0.00 in0.0 mm 0.00 in0.0 mm
08:45 PM 72.7°F22.6°C 61.1°F16.2°C 67% 0.8 mph N1.3 kmh N 3.0 mph4.8 kmh 29.95 in1014.2 mb 0.00 in0.0 mm 0.00 in0.0 mm 0.00 in0.0 mm
09:00 PM 71.6°F22.0°C 60.1°F15.6°C 67% 0.2 mph N0.3 kmh N 3.0 mph4.8 kmh 29.95 in1014.2 mb 0.00 in0.0 mm 0.00 in0.0 mm 0.00 in0.0 mm
09:15 PM 71.2°F21.8°C 60.5°F15.8°C 69% 1.0 mph N1.6 kmh N 2.0 mph3.2 kmh 29.95 in1014.2 mb 0.00 in0.0 mm 0.00 in0.0 mm 0.00 in0.0 mm
09:30 PM 71.3°F21.8°C 58.5°F14.7°C 64% 1.7 mph ENE2.7 kmh ENE 5.0 mph8.0 kmh 29.95 in1014.2 mb 0.00 in0.0 mm 0.00 in0.0 mm 0.00 in0.0 mm
09:45 PM 71.0°F21.7°C 59.5°F15.3°C 67% 0.2 mph ENE0.3 kmh ENE 2.0 mph3.2 kmh 29.95 in1014.2 mb 0.00 in0.0 mm 0.00 in0.0 mm 0.00 in0.0 mm
10:00 PM 70.1°F21.2°C 59.9°F15.5°C 70% 0.7 mph ENE1.1 kmh ENE 2.0 mph3.2 kmh 29.95 in1014.2 mb 0.00 in0.0 mm 0.00 in0.0 mm 0.00 in0.0 mm
10:15 PM 69.2°F20.7°C 59.4°F15.2°C 71% 0.4 mph ENE0.6 kmh ENE 2.0 mph3.2 kmh 29.95 in1014.2 mb 0.00 in0.0 mm 0.00 in0.0 mm 0.00 in0.0 mm
10:30 PM 68.6°F20.3°C 59.6°F15.3°C 73% Calm Calm 2.0 mph3.2 kmh 29.95 in1014.2 mb 0.00 in0.0 mm 0.00 in0.0 mm 0.00 in0.0 mm
10:45 PM 67.8°F19.9°C 59.2°F15.1°C 74% 0.9 mph ENE1.4 kmh ENE 3.0 mph4.8 kmh 29.96 in1014.6 mb 0.00 in0.0 mm 0.00 in0.0 mm 0.00 in0.0 mm
11:00 PM 67.3°F19.6°C 58.7°F14.8°C 74% 0.6 mph ENE1.0 kmh ENE 3.0 mph4.8 kmh 29.97 in1014.9 mb 0.00 in0.0 mm 0.00 in0.0 mm 0.00 in0.0 mm
11:15 PM 66.8°F19.3°C 58.6°F14.8°C 75% 0.3 mph ENE0.5 kmh ENE 2.0 mph3.2 kmh 29.98 in1015.2 mb 0.00 in0.0 mm 0.00 in0.0 mm 0.00 in0.0 mm
11:30 PM 66.6°F19.2°C 59.2°F15.1°C 77% Calm Calm 1.0 mph1.6 kmh 29.98 in1015.2 mb 0.00 in0.0 mm 0.00 in0.0 mm 0.00 in0.0 mm
11:45 PM 66.4°F19.1°C 59.0°F15.0°C 77% 1.0 mph ENE1.6 kmh ENE 2.0 mph3.2 kmh 29.98 in1015.2 mb 0.00 in0.0 mm 0.00 in0.0 mm 0.00 in0.0 mm